»·PEaware :: SWA3798 KPHX-KLAX

SWA3798 :: KPHX-KLAX

FLIGHT INFORMATION

Flight Status: Arrived
Operator:
Southwest Airlines
More flights by this operator :: More flights under this callsign
Pilot: John C. (18682)
Aircraft: BOEING 737-800
(B738)
More flights by this aircraft type
Origin: KPHX Phoenix Sky Harbor Intl
United States
Destination: KLAX Los Angeles Intl
United States
More flights between these airports :: More routes between these airports
Route: +KEENS2 MESSI ESTWD HLYWD1
File this flight plan on PilotEdge
Remarks:
Altitude:
(Current/Filed)
32,000ft
Speed:
(Current/Filed)
458kts
Departed: 18-Nov-18 09:11 AM
Arrived: 18-Nov-18 10:14 AM
Distance/Time
Traveled:
320nm/1:03
Distance/Time
To Go:
Arrived

Flight Plot

Page will automatically refresh every two minutes.

Flight plan parsing failed; only flown route is shown


Map Options




Map Legend


Flown Route
Filed Route
Departure Airport
Arrival Airport
Navaid (VOR, NDB)
Fix

Horizontal Profiles

Position Reports

Time Latitude Longitude Heading Altitude Ground
Speed
18-Nov-18 08:50 33.433572 -111.999799 34 1126ft 0kts
18-Nov-18 08:51 33.433572 -111.999799 34 1126ft 0kts
18-Nov-18 08:52 33.433572 -111.999799 34 1126ft 0kts
18-Nov-18 08:53 33.433572 -111.999799 34 1126ft 0kts
18-Nov-18 08:54 33.433572 -111.999799 34 1126ft 0kts
18-Nov-18 08:55 33.433572 -111.999799 34 1126ft 0kts
18-Nov-18 08:56 33.433572 -111.999799 34 1126ft 0kts
18-Nov-18 08:57 33.433572 -111.999799 34 1126ft 0kts
18-Nov-18 08:58 33.433572 -111.999799 34 1126ft 0kts
18-Nov-18 08:59 33.433572 -111.999799 34 1126ft 0kts
18-Nov-18 09:00 33.433572 -111.999799 34 1126ft 0kts
18-Nov-18 09:01 33.433572 -111.999799 34 1126ft 0kts
18-Nov-18 09:02 33.433572 -111.999799 34 1126ft 0kts
18-Nov-18 09:03 33.433572 -111.999799 34 1126ft 0kts
18-Nov-18 09:04 33.433307 -112.000035 63 1126ft 2kts
18-Nov-18 09:05 33.433541 -112.000371 178 1126ft 0kts
18-Nov-18 09:06 33.433662 -112.000374 179 1126ft 0kts
18-Nov-18 09:07 33.433662 -112.000374 179 1126ft 0kts
18-Nov-18 09:08 33.432877 -112.000840 258 1125ft 12kts
18-Nov-18 09:09 33.432886 -112.005946 269 1126ft 20kts
18-Nov-18 09:10 33.432882 -112.012313 269 1125ft 19kts
18-Nov-18 09:11 33.432885 -112.019016 271 1118ft 20kts
18-Nov-18 09:12 33.432901 -112.025902 269 1115ft 19kts
18-Nov-18 09:13 33.431966 -112.026973 178 1113ft 4kts
18-Nov-18 09:14 33.431071 -112.017949 90 1120ft 108kts
18-Nov-18 09:15 33.431896 -111.965124 86 2648ft 180kts
18-Nov-18 09:16 33.434217 -111.896646 92 4348ft 230kts
18-Nov-18 09:17 33.394087 -111.839858 165 6938ft 248kts
18-Nov-18 09:18 33.332838 -111.866380 241 9368ft 254kts
18-Nov-18 09:19 33.346578 -111.945271 305 11120ft 282kts
18-Nov-18 09:20 33.367460 -112.042401 281 12967ft 318kts
18-Nov-18 09:21 33.383631 -112.147266 281 15724ft 326kts
18-Nov-18 09:22 33.399615 -112.255014 281 18375ft 335kts
18-Nov-18 09:23 33.415922 -112.365804 281 20793ft 343kts
18-Nov-18 09:24 33.432645 -112.480166 280 22870ft 352kts
18-Nov-18 09:25 33.449535 -112.596607 279 24867ft 360kts
18-Nov-18 09:26 33.451831 -112.716330 271 26683ft 368kts
18-Nov-18 09:27 33.466577 -112.837555 290 28336ft 376kts
18-Nov-18 09:28 33.506931 -112.954179 291 29935ft 382kts
18-Nov-18 09:29 33.547634 -113.070877 291 31714ft 378kts
18-Nov-18 09:30 33.589042 -113.190006 291 32212ft 403kts
18-Nov-18 09:31 33.633163 -113.317354 291 32199ft 418kts
18-Nov-18 09:32 33.677627 -113.446123 291 32197ft 418kts
18-Nov-18 09:33 33.721819 -113.574628 291 32194ft 418kts
18-Nov-18 09:34 33.765579 -113.702480 291 32197ft 418kts
18-Nov-18 09:35 33.809505 -113.831444 291 32204ft 418kts
18-Nov-18 09:36 33.853223 -113.960219 291 32207ft 418kts
18-Nov-18 09:37 33.897192 -114.089817 291 32206ft 418kts
18-Nov-18 09:38 33.924268 -114.223737 281 32193ft 417kts
18-Nov-18 09:39 33.947077 -114.359914 281 32192ft 417kts
18-Nov-18 09:40 33.968747 -114.488882 281 32195ft 417kts
18-Nov-18 09:41 33.991606 -114.625755 281 32191ft 417kts
18-Nov-18 09:42 34.013567 -114.758513 281 32193ft 417kts
18-Nov-18 09:43 34.036046 -114.895287 280 32192ft 417kts
18-Nov-18 09:44 34.058386 -115.032100 281 32191ft 418kts
18-Nov-18 09:45 34.080304 -115.166875 281 32189ft 422kts
18-Nov-18 09:46 34.099070 -115.282915 281 32214ft 422kts
18-Nov-18 09:47 34.124716 -115.442588 281 32275ft 422kts
18-Nov-18 09:48 34.146879 -115.581697 281 32280ft 422kts
18-Nov-18 09:49 34.161511 -115.688449 271 32291ft 423kts
18-Nov-18 09:50 34.150401 -115.829451 264 32286ft 424kts
18-Nov-18 09:51 34.134314 -115.994473 264 32284ft 424kts
18-Nov-18 09:52 34.122783 -116.112041 265 32283ft 424kts
18-Nov-18 09:53 34.108943 -116.251653 265 32259ft 407kts
18-Nov-18 09:54 34.094985 -116.386767 264 32218ft 407kts
18-Nov-18 09:55 34.081783 -116.509548 264 31377ft 410kts
18-Nov-18 09:56 34.066982 -116.653561 265 27518ft 410kts
18-Nov-18 09:57 34.054854 -116.784081 265 24796ft 396kts
18-Nov-18 09:58 34.042407 -116.911983 263 22340ft 385kts
18-Nov-18 09:59 34.026071 -117.036609 263 20043ft 371kts
18-Nov-18 10:00 34.012570 -117.149564 263 18006ft 358kts
18-Nov-18 10:01 33.998893 -117.264148 263 15952ft 346kts
18-Nov-18 10:02 33.985585 -117.376273 263 14009ft 335kts
18-Nov-18 10:03 33.974156 -117.484571 273 12161ft 324kts
18-Nov-18 10:04 33.993730 -117.580223 287 11157ft 297kts
18-Nov-18 10:05 34.014976 -117.669260 286 10298ft 282kts
18-Nov-18 10:06 34.017102 -117.757183 263 9211ft 271kts
18-Nov-18 10:07 34.007955 -117.844704 264 8026ft 267kts
18-Nov-18 10:08 33.999395 -117.931541 264 6813ft 265kts
18-Nov-18 10:09 33.990866 -118.017958 263 5628ft 262kts
18-Nov-18 10:10 33.982767 -118.097918 263 4321ft 224kts
18-Nov-18 10:11 33.976224 -118.167288 263 3595ft 190kts
18-Nov-18 10:12 33.969898 -118.229726 263 2933ft 187kts
18-Nov-18 10:13 33.963989 -118.287394 263 2016ft 164kts
18-Nov-18 10:14 33.958740 -118.338306 263 1191ft 147kts
18-Nov-18 10:15 33.953667 -118.386465 263 408ft 147kts
18-Nov-18 10:16 33.950035 -118.422170 262 118ft 42kts
18-Nov-18 10:17 33.948506 -118.426790 224 113ft 2kts
18-Nov-18 10:18 33.946381 -118.427321 104 109ft 10kts
18-Nov-18 10:19 33.946829 -118.422478 82 116ft 19kts
18-Nov-18 10:20 33.947427 -118.416637 83 119ft 17kts
18-Nov-18 10:21 33.948079 -118.411527 83 122ft 16kts
18-Nov-18 10:22 33.948762 -118.404857 82 119ft 21kts
18-Nov-18 10:23 33.948016 -118.400052 174 113ft 13kts
18-Nov-18 10:24 33.946835 -118.400676 263 116ft 0kts
18-Nov-18 10:25 33.946835 -118.400676 263 116ft 0kts
18-Nov-18 10:26 33.946835 -118.400676 263 116ft 0kts
18-Nov-18 10:27 33.946835 -118.400676 263 116ft 0kts

Navigation Log

Ident Type
Flight plan parsing failed, navigation log unavailable